Latest Weather Observations for Camooweal

IDD60801

Issued at 4:01 pm CST Thursday 3 September 2015 (issued every 30 minutes, with the page automatically refreshed every 10 minutes)

About weather observations | Map of weather stations | Latest weather observations for NT | Other Formats
Station Details ID: 037010 Name: CAMOOWEAL TOWNSHIP Lat: -19.92 Lon: 138.12 Height: 231.2 m
Data from the previous 72 hours. | See also: Recent months at Camooweal
Date/Time
CST
Temp
°C
App
Temp
°C
Dew
Point
Rel
Hum
%
Delta-T
°C
Wind Press
QNH
hPa
Press
MSL
hPa
Rain
since 9 am
mm
Dir
 
Spd
km/h
Gust
km/h
Spd
kts
Gust
kts
03/04:00pm 28.7 22.2 -2.4 13 14.2 SSE 22 30 12 16 1018.3 1017.3 0.0
03/03:30pm 28.4 21.9 -2.6 13 14.1 SSE 22 32 12 17 1018.3 1017.3 0.0
03/03:00pm 28.2 21.5 -3.9 12 14.3 SSE 22 33 12 18 1018.4 1017.4 0.0
03/02:30pm 28.2 21.9 -3.9 12 14.2 SSE 20 30 11 16 1018.6 1017.6 0.0
03/02:00pm 27.7 20.4 -3.2 13 13.9 SSE 26 35 14 19 1019.0 1018.0 0.0
03/01:30pm 28.0 21.1 -3.0 13 13.9 SSE 24 39 13 21 1019.4 1018.4 0.0
03/01:00pm 27.3 20.7 -3.5 13 13.7 SSE 22 30 12 16 1020.0 1018.9 0.0
03/12:30pm 26.4 19.3 -4.2 13 13.3 SSE 24 35 13 19 1020.5 1019.4 0.0
03/12:00pm 26.2 19.6 -3.4 14 13.1 SSE 22 35 12 19 1021.2 1020.2 0.0
03/11:30am 25.5 17.7 -3.9 14 12.7 SSE 28 37 15 20 1021.6 1020.6 0.0
03/11:00am 25.1 16.9 -4.2 14 12.6 SSE 30 41 16 22 1022.2 1021.2 0.0
03/10:30am 24.1 15.4 -5.0 14 12.2 SSE 32 43 17 23 1022.3 1021.3 0.0
03/10:00am 23.5 15.3 -3.7 16 11.7 SSE 30 41 16 22 1022.7 1021.7 0.0
03/09:30am 22.9 14.3 -4.2 16 11.4 SE 32 43 17 23 1022.7 1021.7 0.0
03/09:00am 22.5 14.2 -4.5 16 11.3 SE 30 41 16 22 1022.6 1021.6 0.0
03/08:30am 21.6 13.0 -4.5 17 10.8 SSE 32 41 17 22 1022.2 1021.2 0.0
03/08:00am 20.5 12.2 -5.4 17 10.4 SE 30 39 16 21 1021.7 1020.7 0.0
03/07:30am 19.6 12.8 -5.3 18 9.9 SSE 22 32 12 17 1021.4 1020.4 0.0
03/07:00am 18.8 12.6 -5.3 19 9.6 SSE 19 26 10 14 1021.0 1019.9 0.0
03/06:30am 18.4 11.9 -5.6 19 9.4 SSE 20 32 11 17 1020.4 1019.3 0.0
03/06:00am 18.5 11.7 -4.9 20 9.3 SSE 22 30 12 16 1020.0 1018.9 0.0
03/05:30am 18.5 11.9 -3.6 22 9.0 SSE 22 30 12 16 1019.5 1018.5 0.0
03/05:00am 18.6 12.1 -2.3 24 8.8 SSE 22 32 12 17 1018.9 1017.9 0.0
03/04:30am 19.2 12.9 -1.3 25 8.8 S 22 30 12 16 1018.6 1017.6 0.0
03/04:00am 19.8 13.8 -1.3 24 9.2 SSE 20 28 11 15 1018.4 1017.4 0.0
03/03:30am 20.2 14.3 -1.0 24 9.3 SSE 20 28 11 15 1018.2 1017.2 0.0
03/03:00am 20.4 14.6 -0.3 25 9.2 SSE 20 26 11 14 1018.2 1017.2 0.0
03/02:30am 20.8 15.0 0.1 25 9.3 SSE 20 28 11 15 1017.9 1016.9 0.0
03/02:00am 20.8 15.6 0.1 25 9.3 SE 17 24 9 13 1018.3 1017.3 0.0
03/01:30am 21.6 16.0 0.2 24 9.7 SE 19 26 10 14 1018.1 1017.1 0.0
03/01:00am 21.9 16.7 -0.1 23 10.0 SE 17 24 9 13 1018.2 1017.2 0.0
03/12:30am 22.4 16.7 0.3 23 10.1 SE 20 26 11 14 1018.2 1017.2 0.0
03/12:00am 22.8 17.1 0.6 23 10.3 SSE 20 28 11 15 1017.7 1016.7 0.0
 
Date/Time
CST
Temp
°C
App
Temp
°C
Dew
Point
Rel
Hum
%
Delta-T
°C
Wind Press
QNH
hPa
Press
MSL
hPa
Rain
since 9 am
mm
Dir
 
Spd
km/h
Gust
km/h
Spd
kts
Gust
kts
02/11:30pm 23.2 16.7 0.3 22 10.6 SSE 24 32 13 17 1017.4 1016.4 0.0
02/11:00pm 23.5 17.8 0.6 22 10.7 SSE 20 32 11 17 1017.4 1016.4 0.0
02/10:30pm 23.9 17.9 0.9 22 10.8 SSE 22 30 12 16 1017.3 1016.3 0.0
02/10:00pm 24.5 18.2 1.4 22 11.0 SSE 24 35 13 19 1017.1 1016.0 0.0
02/09:30pm 25.1 18.4 1.3 21 11.3 S 26 33 14 18 1016.8 1015.7 0.0
02/09:00pm 25.8 18.9 2.5 22 11.4 S 28 39 15 21 1016.3 1015.2 0.0
02/08:30pm 26.7 19.5 3.2 22 11.7 S 30 43 16 23 1015.9 1014.8 0.0
02/08:00pm 27.3 21.0 3.7 22 11.9 S 26 39 14 21 1015.6 1014.5 0.0
02/07:30pm 27.9 21.3 4.2 22 12.1 S 28 37 15 20 1014.9 1013.9 0.0
02/07:00pm 28.5 22.0 4.7 22 12.3 S 28 39 15 21 1014.4 1013.4 0.0
02/06:30pm 29.7 23.1 4.4 20 13.1 S 28 39 15 21 1013.8 1012.8 0.0
02/06:00pm 30.8 24.5 3.8 18 14.0 S 26 35 14 19 - - 0.0
02/05:30pm 32.1 26.6 4.0 17 14.7 S 22 30 12 16 - - 0.0
02/05:00pm 33.2 29.0 5.7 18 14.9 WSW 17 22 9 12 - - 0.0
02/04:30pm 33.6 29.8 6.0 18 15.0 W 15 19 8 10 - - 0.0
02/04:00pm 33.4 29.4 6.6 19 14.7 W 17 26 9 14 - - 0.0
02/03:30pm 33.8 30.3 7.0 19 14.9 W 15 26 8 14 - - 0.0
02/03:00pm 33.7 30.0 6.1 18 15.1 WSW 15 24 8 13 - - 0.0
02/02:30pm 34.2 30.3 7.3 19 15.0 WNW 17 26 9 14 - - 0.0
02/02:00pm 34.3 30.1 7.4 19 15.0 W 19 39 10 21 - - 0.0
02/01:30pm 33.8 29.5 7.0 19 14.9 WNW 19 30 10 16 - - 0.0
02/01:00pm 32.9 28.8 6.2 19 14.5 WNW 17 24 9 13 - - 0.0
02/12:30pm 32.1 26.6 4.0 17 14.7 WNW 22 30 12 16 - - 0.0
02/12:00pm 33.0 27.7 2.0 14 15.8 NW 19 32 10 17 - - 0.0
02/11:30am 32.3 26.9 2.4 15 15.3 NW 20 33 11 18 - - 0.0
02/11:00am 31.9 26.4 2.1 15 15.1 WNW 20 33 11 18 - - 0.0
02/10:30am 30.9 25.3 1.3 15 14.7 NW 20 28 11 15 1016.3 1015.2 0.0
02/10:00am 30.3 24.5 -0.1 14 14.7 WNW 20 33 11 18 1016.3 1015.2 0.0
02/09:30am 30.3 24.5 -0.1 14 14.7 NNW 20 32 11 17 1015.8 1014.7 0.0
02/09:00am 29.5 22.8 -0.8 14 14.4 NNW 24 33 13 18 1015.6 1014.5 0.0
02/08:30am 27.9 21.8 -2.0 14 13.7 N 20 28 11 15 1015.5 1014.4 0.0
02/08:00am 25.8 20.4 -1.1 17 12.3 N 17 24 9 13 1015.3 1014.2 0.0
02/07:30am 24.2 18.8 -1.6 18 11.6 N 17 20 9 11 1014.8 1013.8 0.0
02/07:00am 22.5 17.4 -2.2 19 10.8 N 15 19 8 10 1014.4 1013.4 0.0
02/06:30am 22.4 17.0 -1.6 20 10.6 N 17 22 9 12 1014.3 1013.3 0.0
02/06:00am 22.4 17.3 -1.6 20 10.6 N 15 19 8 10 1014.1 1013.1 0.0
02/05:30am 21.0 16.8 -0.9 23 9.7 NNW 11 19 6 10 1013.9 1012.9 0.0
02/05:00am 19.8 16.9 -1.3 24 9.2 SW 4 9 2 5 1013.5 1012.5 0.0
02/04:30am 21.3 16.7 -1.3 22 10.0 N 13 17 7 9 1012.7 1011.6 0.0
02/04:00am 21.2 15.8 -1.3 22 9.9 N 17 22 9 12 1012.6 1011.5 0.0
02/03:30am 20.9 15.8 -1.6 22 9.8 NNE 15 20 8 11 1012.9 1011.8 0.0
02/03:00am 20.5 15.4 -1.9 22 9.7 NNE 15 19 8 10 1013.3 1012.2 0.0
02/02:30am 20.6 16.2 -2.5 21 9.9 NNE 11 15 6 8 1013.6 1012.6 0.0
02/02:00am 21.4 16.6 -2.5 20 10.3 N 13 17 7 9 1013.4 1012.3 0.0
02/01:30am 22.9 18.1 -2.6 18 11.1 N 13 19 7 10 1013.5 1012.5 0.0
02/01:00am 23.9 18.7 -2.6 17 11.6 N 15 20 8 11 1013.7 1012.7 0.0
02/12:30am 23.3 18.4 -3.1 17 11.4 N 13 17 7 9 1013.7 1012.7 0.0
02/12:00am 23.3 17.7 -3.1 17 11.4 N 17 20 9 11 1013.6 1012.6 0.0
 
Date/Time
CST
Temp
°C
App
Temp
°C
Dew
Point
Rel
Hum
%
Delta-T
°C
Wind Press
QNH
hPa
Press
MSL
hPa
Rain
since 9 am
mm
Dir
 
Spd
km/h
Gust
km/h
Spd
kts
Gust
kts
01/11:30pm 22.9 18.4 -3.4 17 11.3 N 11 15 6 8 1013.5 1012.5 0.0
01/11:00pm 23.6 18.7 -3.7 16 11.7 N 13 17 7 9 1013.4 1012.3 0.0
01/10:30pm 24.5 20.0 -2.9 16 12.0 NNE 11 15 6 8 1013.3 1012.2 0.0
01/10:00pm 25.6 20.4 -2.9 15 12.6 NNE 15 19 8 10 1013.3 1012.2 0.0
01/09:30pm 25.8 21.0 -2.8 15 12.7 NNE 13 17 7 9 1013.2 1012.1 0.0
01/09:00pm 25.9 20.7 -2.7 15 12.8 NNE 15 19 8 10 1013.0 1011.9 0.0
01/08:30pm 26.2 21.0 -2.4 15 12.9 NNE 15 17 8 9 1012.8 1011.7 0.0
01/08:00pm 26.8 22.1 -2.0 15 13.1 NNE 13 17 7 9 1012.5 1011.4 0.0
01/07:30pm 27.3 22.5 -2.5 14 13.5 NNE 13 15 7 8 1012.1 1011.0 0.0
01/07:00pm 28.3 24.0 -1.7 14 13.9 NNE 11 13 6 7 - - 0.0
01/06:30pm 29.2 25.2 -2.0 13 14.5 NNE 9 13 5 7 - - 0.0
01/06:00pm 31.3 27.0 -1.5 12 15.6 N 11 15 6 8 - - 0.0
01/05:30pm 32.5 27.8 -1.7 11 16.3 N 13 19 7 10 - - 0.0
01/05:00pm 33.1 28.5 -1.3 11 16.6 NNW 13 20 7 11 - - 0.0
01/04:30pm 33.1 28.5 -1.3 11 16.6 NNW 13 26 7 14 - - 0.0
01/04:00pm 33.6 29.8 -0.9 11 16.8 NNW 9 17 5 9 - - 0.0
01/03:30pm 33.6 28.1 -2.2 10 17.1 N 17 24 9 13 - - 0.0
01/03:00pm 33.3 28.1 -2.4 10 16.9 NNW 15 24 8 13 - - 0.0
01/02:30pm 33.5 28.7 -2.3 10 17.0 N 13 22 7 12 - - 0.0
01/02:00pm 32.4 26.8 -3.1 10 16.5 N 17 28 9 15 - - 0.0
01/01:30pm 32.6 27.0 -2.9 10 16.6 N 17 30 9 16 - - 0.0
01/01:00pm 32.3 26.1 -3.2 10 16.5 N 20 33 11 18 - - 0.0
01/12:30pm 31.8 25.7 -2.3 11 16.0 N 20 37 11 20 - - 0.0
01/12:00pm 30.8 23.9 -3.0 11 15.6 NNE 24 37 13 20 - - 0.0
01/11:30am 30.2 22.8 -3.5 11 15.3 N 26 39 14 21 1015.2 1014.1 0.0
01/11:00am 30.2 23.6 -3.5 11 15.3 NNE 22 32 12 17 1015.8 1014.7 0.0
01/10:30am 29.2 22.9 -4.3 11 14.9 NE 20 32 11 17 1016.3 1015.2 0.0
01/10:00am 28.3 21.3 -3.8 12 14.3 NNE 24 33 13 18 1016.6 1015.5 0.0
01/09:30am 27.3 20.6 -4.6 12 13.9 NE 22 30 12 16 1016.5 1015.4 0.0
01/09:00am 26.3 20.0 -4.3 13 13.3 NE 20 26 11 14 1016.3 1015.6 0.0
01/08:30am 24.9 18.7 -3.5 15 12.4 NE 20 30 11 16 1015.9 1015.2 0.0
01/08:00am 22.4 16.7 -3.8 17 11.1 ENE 17 22 9 12 1015.8 1015.1 0.0
01/07:30am 20.6 14.9 -3.8 19 10.2 ENE 17 24 9 13 1015.6 1014.9 0.0
01/07:00am 19.0 13.7 -3.8 21 9.4 ENE 15 22 8 12 1015.4 1014.7 0.0
01/06:30am 17.4 11.7 -3.9 23 8.6 ENE 17 20 9 11 1014.9 1014.3 0.0
01/06:00am 15.9 11.7 -4.1 25 7.9 NE 9 15 5 8 1015.0 1014.4 0.0
01/05:30am 16.3 11.7 -4.3 24 8.1 NE 11 13 6 7 1015.0 1014.4 0.0
01/05:00am 16.3 12.1 -4.3 24 8.1 ENE 9 11 5 6 1015.3 1014.6 0.0
01/04:30am 16.1 11.1 -4.4 24 8.1 E 13 15 7 8 1015.3 1014.6 0.0
01/04:00am 15.5 11.3 -3.9 26 7.7 E 9 11 5 6 1015.4 1014.7 0.0
01/03:30am 14.9 11.1 -5.5 24 7.7 ESE 6 9 3 5 1015.6 1014.9 0.0
01/03:00am 15.5 11.5 -5.5 23 8.0 ESE 7 9 4 5 1015.7 1015.0 0.0
01/02:30am 16.7 13.0 -4.5 23 8.4 SE 6 7 3 4 1015.8 1015.1 0.0
01/02:00am 17.0 13.3 -4.8 22 8.6 SE 6 7 3 4 1016.1 1015.4 0.0
01/01:30am 17.3 13.3 -5.2 21 8.8 S 7 9 4 5 1016.4 1015.7 0.0
01/01:00am 18.0 14.3 -4.6 21 9.0 SSE 6 9 3 5 1016.7 1016.0 0.0
01/12:30am 18.8 14.5 -4.6 20 9.4 SSE 9 11 5 6 1016.6 1015.9 0.0
01/12:00am 19.8 14.8 -4.5 19 9.9 SE 13 15 7 8 1016.6 1015.9 0.0
 
Date/Time
CST
Temp
°C
App
Temp
°C
Dew
Point
Rel
Hum
%
Delta-T
°C
Wind Press
QNH
hPa
Press
MSL
hPa
Rain
since 9 am
mm
Dir
 
Spd
km/h
Gust
km/h
Spd
kts
Gust
kts
31/11:30pm 19.9 15.2 -5.1 18 10.1 SE 11 15 6 8 1016.7 1016.0 0.0
31/11:00pm 21.2 15.7 -5.6 16 10.8 SSE 15 17 8 9 1016.7 1016.0 0.0
31/10:30pm 22.2 16.8 -4.8 16 11.2 SSE 15 22 8 12 1016.6 1015.9 0.0
31/10:00pm 22.9 17.1 -5.1 15 11.6 SSE 17 24 9 13 1016.6 1015.9 0.0
31/09:30pm 21.8 16.8 -4.3 17 10.9 S 13 17 7 9 1016.5 1015.8 0.0
31/09:00pm 21.2 16.9 -4.8 17 10.7 SSW 9 11 5 6 1016.3 1015.6 0.0
31/08:30pm 21.6 16.9 -5.3 16 11.0 S 11 13 6 7 1016.1 1015.4 0.0
31/08:00pm 22.3 18.0 -4.7 16 11.2 S 9 13 5 7 1015.8 1015.1 0.0
31/07:30pm 23.0 18.6 -5.9 14 11.8 S 9 13 5 7 1015.5 1014.8 0.0
31/07:00pm 24.5 19.7 -5.7 13 12.6 SSE 11 13 6 7 1015.2 1014.5 0.0
31/06:30pm 26.3 21.6 -5.3 12 13.5 S 11 13 6 7 1014.8 1014.2 0.0
31/06:00pm 28.6 23.2 -4.7 11 14.6 S 15 19 8 10 - - 0.0
31/05:30pm 29.7 23.9 -5.1 10 15.3 SSE 17 20 9 11 - - 0.0
31/05:00pm 30.3 24.5 -4.7 10 15.6 SSE 17 24 9 13 - - 0.0
31/04:30pm 30.6 25.4 -5.8 9 16.0 SSE 13 20 7 11 - - 0.0
31/04:00pm 31.0 24.5 -5.5 9 16.1 S 20 28 11 15 - - 0.0

Other Formats:

Comma delimited format used in spreadsheet applications
http://www.bom.gov.au/fwo/IDD60801/IDD60801.94255.axf

JavaScript Object Notation format (JSON) in row-major order
http://www.bom.gov.au/fwo/IDD60801/IDD60801.94255.json